Time;durP1;ratioP1;P1;durP2;ratioP2;P2;SDS_P1;SDS_P2;PMS_P1;PMS_P2;Temp;Humidity;BMP_temperature;BMP_pressure;BME280_temperature;BME280_humidity;BME280_pressure;Samples;Min_cycle;Max_cycle;Signal;HPM_P1;HPM_P2
2022/11/17 00:02:03;;;;;;;13.00;7.40;;;;;;;;;;5057017;28;20040;-82
2022/11/17 00:04:29;;;;;;;14.27;7.43;;;;;;;;;;5057577;28;20572;-80
2022/11/17 00:06:56;;;;;;;12.85;6.85;;;;;;;;;;5058999;28;20045;-82
2022/11/17 00:09:23;;;;;;;15.30;7.63;;;;;;;;;;5058874;28;20072;-80
2022/11/17 00:14:35;;;;;;;11.13;6.87;;;;;;;;;;5056987;28;20357;-81
2022/11/17 00:17:03;;;;;;;14.13;7.30;;;;;;;;;;5057670;28;20071;-81
2022/11/17 00:22:15;;;;;;;15.18;7.35;;;;;;;;;;5057701;28;20045;-81
2022/11/17 00:24:41;;;;;;;14.18;7.18;;;;;;;;;;5058172;28;20065;-82
2022/11/17 00:27:08;;;;;;;15.75;7.65;;;;;;;;;;5057954;28;20370;-82
2022/11/17 00:29:36;;;;;;;14.75;7.82;;;;;;;;;;5056774;28;20235;-81
2022/11/17 00:34:50;;;;;;;14.35;6.97;;;;;;;;;;5057425;28;20068;-81
2022/11/17 00:37:17;;;;;;;13.80;7.30;;;;;;;;;;5057071;28;20110;-82
2022/11/17 00:39:43;;;;;;;15.38;7.50;;;;;;;;;;5057434;28;20084;-81
2022/11/17 00:42:09;;;;;;;16.35;7.50;;;;;;;;;;5056859;28;20051;-80
2022/11/17 00:44:36;;;;;;;13.70;7.53;;;;;;;;;;5055643;28;20133;-81
2022/11/17 00:47:02;;;;;;;13.88;7.40;;;;;;;;;;5055891;28;20051;-81
2022/11/17 00:49:29;;;;;;;14.70;7.85;;;;;;;;;;5056832;28;20055;-80
2022/11/17 00:51:56;;;;;;;13.90;7.53;;;;;;;;;;5057313;28;20055;-80
2022/11/17 00:54:23;;;;;;;17.13;8.25;;;;;;;;;;5055893;28;20079;-81
2022/11/17 00:56:56;;;;;;;13.77;7.47;;;;;;;;;;5056026;28;20049;-80
2022/11/17 00:59:49;;;;;;;16.08;7.65;;;;;;;;;;5051842;28;20056;-80
2022/11/17 01:02:51;;;;;;;15.07;7.43;;;;;;;;;;5057287;28;20049;-78
2022/11/17 01:05:32;;;;;;;13.68;6.90;;;;;;;;;;5042932;28;20489;-80
2022/11/17 01:07:59;;;;;;;17.67;7.30;;;;;;;;;;5055421;28;20059;-82
2022/11/17 01:10:25;;;;;;;13.88;7.13;;;;;;;;;;5056004;28;20065;-81
2022/11/17 01:12:52;;;;;;;14.73;7.18;;;;;;;;;;5053216;28;20132;-81
2022/11/17 01:15:19;;;;;;;12.50;7.00;;;;;;;;;;5040415;28;20053;-81
2022/11/17 01:17:46;;;;;;;13.52;6.85;;;;;;;;;;5035479;28;20125;-81
2022/11/17 01:20:12;;;;;;;14.27;7.05;;;;;;;;;;5034871;28;20048;-81
2022/11/17 01:22:39;;;;;;;12.43;6.57;;;;;;;;;;5034587;28;20094;-82
2022/11/17 01:25:05;;;;;;;16.52;7.60;;;;;;;;;;5034870;28;20049;-81
2022/11/17 01:27:32;;;;;;;15.43;7.65;;;;;;;;;;5043245;28;20057;-81
2022/11/17 01:29:58;;;;;;;14.52;7.75;;;;;;;;;;5051182;28;20122;-78
2022/11/17 01:32:25;;;;;;;19.90;8.10;;;;;;;;;;5037131;28;20064;-80
2022/11/17 01:34:51;;;;;;;16.58;8.07;;;;;;;;;;5037567;28;20041;-79
2022/11/17 01:37:17;;;;;;;18.17;8.30;;;;;;;;;;5051294;28;20063;-81
2022/11/17 01:39:44;;;;;;;18.00;8.57;;;;;;;;;;5055799;28;20087;-80
2022/11/17 01:42:12;;;;;;;15.95;7.85;;;;;;;;;;5055634;28;20163;-80
2022/11/17 01:44:56;;;;;;;15.65;7.93;;;;;;;;;;5054955;28;20056;-78
2022/11/17 01:47:26;;;;;;;13.45;8.38;;;;;;;;;;5057204;28;20613;-79
2022/11/17 01:49:55;;;;;;;14.63;8.20;;;;;;;;;;5055688;28;20045;-80
2022/11/17 01:52:22;;;;;;;20.52;9.35;;;;;;;;;;5055901;28;20456;-80
2022/11/17 01:54:48;;;;;;;17.38;9.23;;;;;;;;;;5072116;28;20135;-80
2022/11/17 01:57:23;;;;;;;22.77;9.43;;;;;;;;;;5075742;28;20096;-79
2022/11/17 02:00:10;;;;;;;20.37;9.70;;;;;;;;;;5073159;28;20052;-81
2022/11/17 02:02:38;;;;;;;18.55;9.75;;;;;;;;;;5048878;28;20076;-81
2022/11/17 02:05:10;;;;;;;24.13;9.30;;;;;;;;;;5054305;28;20051;-81
2022/11/17 02:07:37;;;;;;;17.88;9.50;;;;;;;;;;5057024;28;20071;-80
2022/11/17 02:10:04;;;;;;;20.75;9.77;;;;;;;;;;5056731;28;20521;-81
2022/11/17 02:12:32;;;;;;;20.40;9.23;;;;;;;;;;5055289;28;20055;-80
2022/11/17 02:14:59;;;;;;;20.10;8.60;;;;;;;;;;5044163;28;20165;-80
2022/11/17 02:17:28;;;;;;;16.70;8.20;;;;;;;;;;5036661;28;20050;-81
2022/11/17 02:20:00;;;;;;;19.55;9.13;;;;;;;;;;5035769;28;20488;-80
2022/11/17 02:22:36;;;;;;;18.95;9.00;;;;;;;;;;5035116;28;20050;-81
2022/11/17 02:25:15;;;;;;;15.68;8.48;;;;;;;;;;5036404;28;20045;-82
2022/11/17 02:27:51;;;;;;;16.92;7.65;;;;;;;;;;5037007;28;20053;-82
2022/11/17 02:30:20;;;;;;;20.33;8.65;;;;;;;;;;5034679;28;20053;-81
2022/11/17 02:32:53;;;;;;;15.43;7.65;;;;;;;;;;5035369;28;20120;-83
2022/11/17 02:35:19;;;;;;;19.80;8.70;;;;;;;;;;5034373;28;20053;-82
2022/11/17 02:37:46;;;;;;;17.13;8.48;;;;;;;;;;5036264;28;20075;-82
2022/11/17 02:40:13;;;;;;;18.45;8.93;;;;;;;;;;5035847;28;20117;-82
2022/11/17 02:45:37;;;;;;;24.30;9.13;;;;;;;;;;5038740;28;20049;-81
2022/11/17 02:48:10;;;;;;;17.65;8.13;;;;;;;;;;5038092;28;20228;-82
2022/11/17 02:50:38;;;;;;;17.33;8.20;;;;;;;;;;5036532;28;20049;-81
2022/11/17 02:53:04;;;;;;;22.08;8.27;;;;;;;;;;5037139;28;20113;-81
2022/11/17 02:55:33;;;;;;;16.15;8.13;;;;;;;;;;5037504;28;20436;-81
2022/11/17 02:58:00;;;;;;;21.02;8.57;;;;;;;;;;5033750;28;20050;-81
2022/11/17 03:00:27;;;;;;;15.23;8.50;;;;;;;;;;5033651;28;20411;-80
2022/11/17 03:02:59;;;;;;;16.73;8.70;;;;;;;;;;5031990;28;20521;-80
2022/11/17 03:05:32;;;;;;;17.70;8.13;;;;;;;;;;5055451;28;20063;-80
2022/11/17 03:08:11;;;;;;;20.00;8.57;;;;;;;;;;5061139;28;20136;-81
2022/11/17 03:10:50;;;;;;;19.73;8.38;;;;;;;;;;5060629;28;20045;-81
2022/11/17 03:13:36;;;;;;;21.08;8.65;;;;;;;;;;5062047;28;20048;-81
2022/11/17 03:16:11;;;;;;;20.63;8.77;;;;;;;;;;5063835;28;20049;-80
2022/11/17 03:18:50;;;;;;;26.10;10.10;;;;;;;;;;5064036;28;20045;-82
2022/11/17 03:21:22;;;;;;;20.38;9.52;;;;;;;;;;5066700;28;20049;-81
2022/11/17 03:24:10;;;;;;;22.85;9.27;;;;;;;;;;5067365;28;20406;-81
2022/11/17 03:26:41;;;;;;;23.17;9.27;;;;;;;;;;5046357;28;20064;-81
2022/11/17 03:29:10;;;;;;;25.52;9.40;;;;;;;;;;5065549;28;20112;-82
2022/11/17 03:31:37;;;;;;;18.73;8.93;;;;;;;;;;5064666;28;20398;-82
2022/11/17 03:34:06;;;;;;;24.25;9.35;;;;;;;;;;5068293;28;20049;-81
2022/11/17 03:36:34;;;;;;;24.50;9.73;;;;;;;;;;5067572;28;20528;-82
2022/11/17 03:39:07;;;;;;;21.98;8.70;;;;;;;;;;5061117;28;20103;-81
2022/11/17 03:41:36;;;;;;;21.67;9.27;;;;;;;;;;5059416;28;20052;-81
2022/11/17 03:44:04;;;;;;;26.98;9.63;;;;;;;;;;5056990;28;20092;-80
2022/11/17 03:46:31;;;;;;;25.30;9.45;;;;;;;;;;5058405;28;20182;-80
2022/11/17 03:49:02;;;;;;;21.33;9.20;;;;;;;;;;5057467;28;20041;-80
2022/11/17 03:51:29;;;;;;;24.35;8.57;;;;;;;;;;5058518;28;20147;-80
2022/11/17 03:53:56;;;;;;;25.85;9.38;;;;;;;;;;5058760;28;20045;-81
2022/11/17 03:56:22;;;;;;;26.08;8.90;;;;;;;;;;5058635;28;20121;-81
2022/11/17 03:58:53;;;;;;;25.35;9.38;;;;;;;;;;5059778;28;20524;-81
2022/11/17 04:01:20;;;;;;;21.25;9.02;;;;;;;;;;5067750;28;20037;-80
2022/11/17 04:03:47;;;;;;;20.55;8.57;;;;;;;;;;5075771;28;20071;-79
2022/11/17 04:06:13;;;;;;;28.60;9.45;;;;;;;;;;5062439;28;20469;-80
2022/11/17 04:08:40;;;;;;;23.05;8.45;;;;;;;;;;5058496;28;20100;-80
2022/11/17 04:16:36;;;;;;;26.90;9.00;;;;;;;;;;5059099;28;20063;-81
2022/11/17 04:19:03;;;;;;;45.67;9.75;;;;;;;;;;5059911;28;20143;-81
2022/11/17 04:21:29;;;;;;;32.05;8.93;;;;;;;;;;5060184;28;20056;-80
2022/11/17 04:23:56;;;;;;;31.90;8.88;;;;;;;;;;5060935;28;20052;-78
2022/11/17 04:29:08;;;;;;;22.80;8.73;;;;;;;;;;5058236;28;20132;-81
2022/11/17 04:31:35;;;;;;;28.65;9.68;;;;;;;;;;5058574;28;20056;-79
2022/11/17 04:34:02;;;;;;;26.23;9.70;;;;;;;;;;5057732;28;20080;-81
2022/11/17 04:36:31;;;;;;;27.15;9.48;;;;;;;;;;5058388;28;20095;-80
2022/11/17 04:38:58;;;;;;;28.75;10.75;;;;;;;;;;5058869;28;20151;-79
2022/11/17 04:44:12;;;;;;;27.92;9.50;;;;;;;;;;5057442;28;20045;-81
2022/11/17 04:46:39;;;;;;;31.08;9.77;;;;;;;;;;5050558;28;20046;-79
2022/11/17 04:49:06;;;;;;;26.05;10.20;;;;;;;;;;5051638;28;20135;-79
2022/11/17 04:51:33;;;;;;;26.38;10.85;;;;;;;;;;5057003;28;20056;-79
2022/11/17 04:54:00;;;;;;;28.27;10.88;;;;;;;;;;5056717;28;20048;-80
2022/11/17 04:56:28;;;;;;;29.23;10.38;;;;;;;;;;5056731;28;20057;-78
2022/11/17 04:58:54;;;;;;;30.15;10.98;;;;;;;;;;5056417;28;20080;-82
2022/11/17 05:01:21;;;;;;;29.30;10.90;;;;;;;;;;5056960;28;20066;-80
2022/11/17 05:03:49;;;;;;;29.00;10.95;;;;;;;;;;5055309;28;20075;-80
2022/11/17 05:06:15;;;;;;;25.98;9.48;;;;;;;;;;5058176;28;20080;-79
2022/11/17 05:08:42;;;;;;;36.33;12.20;;;;;;;;;;5055543;28;20538;-79
2022/11/17 05:13:54;;;;;;;31.65;10.98;;;;;;;;;;5051873;28;20052;-79
2022/11/17 05:19:07;;;;;;;33.10;11.75;;;;;;;;;;5048231;28;20057;-80
2022/11/17 05:21:33;;;;;;;36.95;12.05;;;;;;;;;;5053089;28;20072;-79
2022/11/17 05:24:00;;;;;;;30.20;11.93;;;;;;;;;;5049727;28;20077;-81
2022/11/17 05:26:28;;;;;;;35.28;12.88;;;;;;;;;;5035978;28;20439;-79
2022/11/17 05:28:55;;;;;;;34.63;12.25;;;;;;;;;;5033963;28;20075;-80
2022/11/17 05:31:22;;;;;;;34.13;12.50;;;;;;;;;;5035957;28;20052;-81
2022/11/17 05:33:49;;;;;;;29.48;11.68;;;;;;;;;;5034848;28;20045;-80
2022/11/17 05:36:16;;;;;;;28.90;11.43;;;;;;;;;;5035005;28;20458;-80
2022/11/17 05:38:42;;;;;;;27.90;10.80;;;;;;;;;;5033919;28;20049;-80
2022/11/17 05:41:09;;;;;;;25.88;10.40;;;;;;;;;;5034072;28;20053;-81
2022/11/17 05:43:35;;;;;;;25.80;10.13;;;;;;;;;;5032362;28;20055;-81
2022/11/17 05:46:02;;;;;;;27.40;11.80;;;;;;;;;;5032930;28;20071;-82
2022/11/17 05:48:29;;;;;;;26.15;10.80;;;;;;;;;;5033656;28;20046;-80
2022/11/17 05:50:55;;;;;;;27.50;11.38;;;;;;;;;;5033912;28;20431;-81
2022/11/17 05:53:22;;;;;;;25.08;10.63;;;;;;;;;;5032757;28;20076;-80
2022/11/17 05:55:49;;;;;;;24.42;10.55;;;;;;;;;;5034453;28;20050;-80
2022/11/17 05:58:25;;;;;;;25.15;11.10;;;;;;;;;;5033773;28;20434;-81
2022/11/17 06:00:52;;;;;;;26.98;11.20;;;;;;;;;;5033612;28;20060;-81
2022/11/17 06:03:21;;;;;;;20.55;9.38;;;;;;;;;;5036416;28;20357;-80
2022/11/17 06:05:47;;;;;;;25.70;10.90;;;;;;;;;;5054943;28;20132;-82
2022/11/17 06:08:14;;;;;;;22.70;10.30;;;;;;;;;;5054516;28;20055;-80
2022/11/17 06:10:40;;;;;;;24.35;9.95;;;;;;;;;;5050403;28;20061;-81
2022/11/17 06:13:07;;;;;;;20.70;9.90;;;;;;;;;;5053662;28;20120;-80
2022/11/17 06:15:33;;;;;;;22.20;10.38;;;;;;;;;;5040593;28;20062;-80
2022/11/17 06:18:03;;;;;;;23.13;10.45;;;;;;;;;;5051666;28;20067;-82
2022/11/17 06:20:32;;;;;;;22.00;10.27;;;;;;;;;;5053461;28;20088;-79
2022/11/17 06:23:00;;;;;;;25.67;11.18;;;;;;;;;;5052414;28;20144;-81
2022/11/17 06:25:27;;;;;;;23.30;10.27;;;;;;;;;;5051808;28;20083;-76
2022/11/17 06:27:54;;;;;;;22.67;9.98;;;;;;;;;;5054515;28;20489;-79
2022/11/17 06:30:20;;;;;;;21.27;10.10;;;;;;;;;;5052374;28;20108;-80
2022/11/17 06:32:48;;;;;;;22.90;10.35;;;;;;;;;;5053717;28;20056;-81
2022/11/17 06:35:15;;;;;;;26.70;10.75;;;;;;;;;;5066019;28;20101;-79
2022/11/17 06:37:42;;;;;;;22.50;10.23;;;;;;;;;;5072667;28;20108;-77
2022/11/17 06:40:09;;;;;;;24.25;10.63;;;;;;;;;;5055155;28;20059;-80
2022/11/17 06:45:23;;;;;;;26.08;11.07;;;;;;;;;;5054360;28;20044;-80
2022/11/17 06:47:51;;;;;;;24.88;10.82;;;;;;;;;;5054728;28;20049;-81
2022/11/17 06:50:17;;;;;;;23.55;10.77;;;;;;;;;;5054712;28;20484;-81
2022/11/17 06:52:44;;;;;;;24.13;10.18;;;;;;;;;;5054496;28;20068;-79
2022/11/17 06:55:10;;;;;;;25.98;11.30;;;;;;;;;;5054823;28;20544;-81
2022/11/17 06:57:36;;;;;;;24.92;10.63;;;;;;;;;;5053045;28;20053;-80
2022/11/17 07:00:04;;;;;;;26.55;11.00;;;;;;;;;;5053778;28;20136;-81
2022/11/17 07:02:31;;;;;;;26.73;11.05;;;;;;;;;;5052909;28;20080;-81
2022/11/17 07:04:57;;;;;;;24.85;11.65;;;;;;;;;;5058975;28;20055;-79
2022/11/17 07:07:24;;;;;;;26.98;11.13;;;;;;;;;;5060603;28;20117;-79
2022/11/17 07:09:50;;;;;;;28.67;11.48;;;;;;;;;;5058956;28;20138;-78
2022/11/17 07:12:17;;;;;;;24.63;11.05;;;;;;;;;;5053048;28;20056;-77
2022/11/17 07:14:43;;;;;;;26.90;10.77;;;;;;;;;;5057447;28;20079;-80
2022/11/17 07:17:10;;;;;;;25.15;11.30;;;;;;;;;;5049457;28;20239;-79
2022/11/17 07:19:36;;;;;;;27.27;11.57;;;;;;;;;;5044387;28;20059;-80
2022/11/17 07:22:03;;;;;;;31.63;11.85;;;;;;;;;;5044756;28;20075;-79
2022/11/17 07:24:29;;;;;;;29.15;10.82;;;;;;;;;;5049460;28;20048;-80
2022/11/17 07:26:55;;;;;;;27.63;11.25;;;;;;;;;;5054456;28;20662;-80
2022/11/17 07:29:22;;;;;;;26.08;10.57;;;;;;;;;;5040875;28;20061;-80
2022/11/17 07:31:48;;;;;;;25.75;10.55;;;;;;;;;;5031763;28;20049;-80
2022/11/17 07:34:15;;;;;;;20.15;9.63;;;;;;;;;;5033886;28;20394;-77
2022/11/17 07:36:41;;;;;;;23.95;10.25;;;;;;;;;;5051773;28;20071;-78
2022/11/17 07:39:08;;;;;;;26.70;10.10;;;;;;;;;;5056050;28;20056;-80
2022/11/17 07:41:34;;;;;;;21.17;9.18;;;;;;;;;;5055383;28;20049;-81
2022/11/17 07:44:00;;;;;;;20.17;8.82;;;;;;;;;;5055163;28;20262;-81
2022/11/17 07:46:27;;;;;;;20.35;9.43;;;;;;;;;;5056145;28;20044;-77
2022/11/17 07:48:54;;;;;;;21.98;8.48;;;;;;;;;;5054796;28;20045;-79
2022/11/17 07:51:20;;;;;;;16.95;7.80;;;;;;;;;;5055401;28;20505;-79
2022/11/17 07:53:47;;;;;;;16.10;7.00;;;;;;;;;;5054224;28;20135;-79
2022/11/17 07:56:13;;;;;;;19.80;8.25;;;;;;;;;;5057813;28;20059;-80
2022/11/17 07:58:40;;;;;;;18.35;7.45;;;;;;;;;;5055793;28;20060;-80
2022/11/17 08:01:08;;;;;;;14.35;6.75;;;;;;;;;;5057486;28;20159;-79
2022/11/17 08:03:35;;;;;;;17.63;7.05;;;;;;;;;;5054096;28;20106;-79
2022/11/17 08:06:02;;;;;;;14.75;6.45;;;;;;;;;;5055575;28;20477;-79
2022/11/17 08:08:29;;;;;;;13.30;5.85;;;;;;;;;;5055936;28;20085;-80
2022/11/17 08:10:55;;;;;;;12.90;5.43;;;;;;;;;;5056056;28;20413;-79
2022/11/17 08:13:23;;;;;;;11.85;5.68;;;;;;;;;;5053722;28;20049;-80
2022/11/17 08:15:54;;;;;;;10.48;5.45;;;;;;;;;;5038322;28;20064;-78
2022/11/17 08:18:20;;;;;;;10.52;5.57;;;;;;;;;;5036219;28;20519;-79
2022/11/17 08:20:48;;;;;;;11.85;5.30;;;;;;;;;;5035796;28;20448;-79
2022/11/17 08:23:15;;;;;;;9.18;4.28;;;;;;;;;;5036504;28;20059;-81
2022/11/17 08:25:41;;;;;;;12.32;4.60;;;;;;;;;;5035088;28;20049;-79
2022/11/17 08:28:08;;;;;;;10.35;4.72;;;;;;;;;;5033592;28;20402;-79
2022/11/17 08:30:35;;;;;;;14.23;4.93;;;;;;;;;;5032706;28;20045;-78
2022/11/17 08:33:01;;;;;;;12.55;4.20;;;;;;;;;;5031664;28;20081;-80
2022/11/17 08:35:28;;;;;;;14.80;6.47;;;;;;;;;;5031999;28;20053;-80
2022/11/17 08:38:02;;;;;;;11.23;5.50;;;;;;;;;;5049352;28;20120;-79
2022/11/17 08:40:28;;;;;;;8.50;4.35;;;;;;;;;;5056259;28;20096;-79
2022/11/17 08:42:55;;;;;;;7.72;4.15;;;;;;;;;;5055246;28;20053;-79
2022/11/17 08:45:26;;;;;;;8.57;4.03;;;;;;;;;;5037030;28;20056;-79
2022/11/17 08:47:54;;;;;;;6.15;3.30;;;;;;;;;;5034888;28;20121;-80
2022/11/17 08:50:21;;;;;;;8.43;3.70;;;;;;;;;;5035112;28;20452;-80
2022/11/17 08:52:47;;;;;;;5.68;3.35;;;;;;;;;;5034175;28;20421;-80
2022/11/17 08:55:14;;;;;;;7.13;3.60;;;;;;;;;;5038259;28;20069;-80
2022/11/17 08:57:40;;;;;;;7.40;3.40;;;;;;;;;;5043886;28;20076;-79
2022/11/17 09:00:07;;;;;;;8.00;3.47;;;;;;;;;;5044252;28;20373;-80
2022/11/17 09:02:34;;;;;;;7.15;3.42;;;;;;;;;;5038640;28;20379;-80
2022/11/17 09:05:00;;;;;;;6.63;3.47;;;;;;;;;;5059169;28;20053;-79
2022/11/17 09:07:26;;;;;;;7.70;3.33;;;;;;;;;;5066003;28;20095;-79
2022/11/17 09:10:00;;;;;;;5.20;3.30;;;;;;;;;;5063375;28;20128;-80
2022/11/17 09:12:26;;;;;;;7.78;3.92;;;;;;;;;;5060775;28;20045;-78
2022/11/17 09:14:53;;;;;;;9.88;4.32;;;;;;;;;;5061887;28;20055;-79
2022/11/17 09:17:19;;;;;;;11.80;4.32;;;;;;;;;;5058930;28;20060;-80
2022/11/17 09:19:46;;;;;;;6.05;3.30;;;;;;;;;;5055356;28;20055;-79
2022/11/17 09:22:12;;;;;;;7.97;3.75;;;;;;;;;;5056820;28;20045;-80
2022/11/17 09:24:38;;;;;;;8.60;3.38;;;;;;;;;;5055582;28;20079;-80
2022/11/17 09:27:05;;;;;;;8.85;3.30;;;;;;;;;;5052518;28;20049;-80
2022/11/17 09:29:31;;;;;;;7.30;3.90;;;;;;;;;;5054536;28;20132;-79
2022/11/17 09:31:58;;;;;;;8.65;3.60;;;;;;;;;;5052380;28;20135;-80
2022/11/17 09:34:24;;;;;;;7.95;3.92;;;;;;;;;;5052316;28;20493;-80
2022/11/17 09:36:51;;;;;;;9.05;4.38;;;;;;;;;;5051461;28;20057;-79
2022/11/17 09:39:17;;;;;;;9.48;4.03;;;;;;;;;;5051379;28;20477;-80
2022/11/17 09:41:55;;;;;;;8.20;3.75;;;;;;;;;;5050512;28;20115;-80
2022/11/17 09:44:24;;;;;;;7.65;3.88;;;;;;;;;;5045982;28;20064;-80
2022/11/17 09:46:50;;;;;;;11.30;4.25;;;;;;;;;;5046532;28;20045;-77
2022/11/17 09:49:52;;;;;;;8.90;4.28;;;;;;;;;;5045390;28;20052;-79
2022/11/17 09:52:34;;;;;;;9.38;3.83;;;;;;;;;;5002618;28;20153;-79
2022/11/17 09:55:24;;;;;;;6.93;3.95;;;;;;;;;;5043203;28;20072;-79
2022/11/17 09:58:18;;;;;;;8.95;4.30;;;;;;;;;;5044289;28;20045;-79
2022/11/17 10:00:50;;;;;;;7.55;4.30;;;;;;;;;;5035439;28;20049;-79
2022/11/17 10:03:24;;;;;;;9.68;4.05;;;;;;;;;;5042799;28;20631;-79
2022/11/17 10:05:51;;;;;;;7.85;3.95;;;;;;;;;;5047784;28;20059;-78
2022/11/17 10:08:19;;;;;;;7.70;4.22;;;;;;;;;;5046702;28;20059;-79
2022/11/17 10:10:49;;;;;;;11.15;4.28;;;;;;;;;;5041677;28;20061;-78
2022/11/17 10:13:24;;;;;;;8.15;4.20;;;;;;;;;;5044159;28;20049;-80
2022/11/17 10:15:52;;;;;;;8.43;4.00;;;;;;;;;;5042314;28;20068;-78
2022/11/17 10:18:18;;;;;;;7.68;4.10;;;;;;;;;;5043604;28;20048;-78
2022/11/17 10:20:45;;;;;;;8.63;3.75;;;;;;;;;;5045748;28;20399;-79
2022/11/17 10:23:13;;;;;;;9.57;3.90;;;;;;;;;;5040670;28;20063;-79
2022/11/17 10:25:40;;;;;;;7.68;3.75;;;;;;;;;;5046376;28;20075;-80
2022/11/17 10:28:08;;;;;;;7.43;3.67;;;;;;;;;;5044066;28;20409;-78
2022/11/17 10:30:35;;;;;;;6.88;3.80;;;;;;;;;;5045619;28;20155;-79
2022/11/17 10:33:01;;;;;;;9.57;3.97;;;;;;;;;;5045188;28;20064;-78
2022/11/17 10:35:32;;;;;;;8.30;3.67;;;;;;;;;;5046487;28;20049;-78
2022/11/17 10:37:59;;;;;;;8.40;3.60;;;;;;;;;;5048019;28;20333;-77
2022/11/17 10:40:29;;;;;;;9.80;3.75;;;;;;;;;;5044622;28;20059;-76
2022/11/17 10:43:01;;;;;;;5.85;3.30;;;;;;;;;;5045442;28;20057;-80
2022/11/17 10:45:28;;;;;;;6.20;3.20;;;;;;;;;;5057142;28;20059;-77
2022/11/17 10:48:09;;;;;;;8.40;3.42;;;;;;;;;;5043601;28;20057;-77
2022/11/17 10:50:36;;;;;;;8.93;3.20;;;;;;;;;;5030569;28;20052;-79
2022/11/17 10:53:21;;;;;;;6.75;3.00;;;;;;;;;;5036993;28;20294;-80
2022/11/17 10:55:52;;;;;;;7.20;3.53;;;;;;;;;;5046836;28;20048;-77
2022/11/17 10:58:22;;;;;;;7.30;3.28;;;;;;;;;;5046194;28;20040;-79
2022/11/17 11:01:09;;;;;;;5.50;3.00;;;;;;;;;;5027859;28;20052;-81
2022/11/17 11:03:35;;;;;;;7.82;3.30;;;;;;;;;;5037660;28;20072;-79
2022/11/17 11:06:02;;;;;;;6.78;2.92;;;;;;;;;;5047351;28;20397;-79
2022/11/17 11:08:31;;;;;;;8.23;3.10;;;;;;;;;;5045179;28;20045;-80
2022/11/17 11:10:58;;;;;;;5.82;3.17;;;;;;;;;;5045408;28;20049;-80
2022/11/17 11:13:43;;;;;;;6.32;3.30;;;;;;;;;;5039444;28;20048;-78
2022/11/17 11:16:10;;;;;;;4.88;2.60;;;;;;;;;;5048399;28;20103;-80
2022/11/17 11:18:37;;;;;;;4.97;2.40;;;;;;;;;;5044868;28;20056;-80
2022/11/17 11:21:17;;;;;;;5.95;2.67;;;;;;;;;;5030648;28;20446;-80
2022/11/17 11:23:47;;;;;;;4.53;2.20;;;;;;;;;;5034324;28;20049;-79
2022/11/17 11:26:14;;;;;;;2.97;1.67;;;;;;;;;;5046871;28;20383;-80
2022/11/17 11:28:54;;;;;;;3.45;2.00;;;;;;;;;;5038698;28;20049;-80
2022/11/17 11:31:20;;;;;;;4.45;1.90;;;;;;;;;;5048447;28;20544;-80
2022/11/17 11:33:52;;;;;;;3.78;2.20;;;;;;;;;;5057782;28;20053;-79
2022/11/17 11:36:31;;;;;;;3.65;2.00;;;;;;;;;;5059119;28;20052;-77
2022/11/17 11:39:01;;;;;;;4.13;1.95;;;;;;;;;;5060178;28;20520;-79
2022/11/17 11:41:39;;;;;;;3.50;1.77;;;;;;;;;;5048405;28;20083;-78
2022/11/17 11:44:05;;;;;;;7.13;2.33;;;;;;;;;;5042953;28;20052;-78
2022/11/17 11:46:35;;;;;;;4.93;2.45;;;;;;;;;;5061260;28;20049;-77
2022/11/17 11:49:06;;;;;;;5.88;2.10;;;;;;;;;;5052251;28;20303;-80
2022/11/17 11:51:35;;;;;;;3.67;1.80;;;;;;;;;;5026785;28;20060;-79
2022/11/17 11:54:12;;;;;;;4.97;2.47;;;;;;;;;;5051090;28;20131;-79
2022/11/17 11:56:45;;;;;;;5.70;2.28;;;;;;;;;;5069736;28;20400;-78
2022/11/17 11:59:14;;;;;;;4.78;2.38;;;;;;;;;;5064741;28;20033;-78
2022/11/17 12:01:56;;;;;;;3.55;2.00;;;;;;;;;;5032389;28;20547;-78
2022/11/17 12:04:28;;;;;;;3.78;2.03;;;;;;;;;;5041546;28;20063;-79
2022/11/17 12:07:01;;;;;;;4.18;1.92;;;;;;;;;;5047937;28;20531;-79
2022/11/17 12:09:39;;;;;;;3.47;2.00;;;;;;;;;;5040806;28;20046;-78
2022/11/17 12:12:07;;;;;;;3.85;2.10;;;;;;;;;;5030121;28;20049;-79
2022/11/17 12:14:34;;;;;;;6.50;2.08;;;;;;;;;;5045025;28;20052;-79
2022/11/17 12:17:01;;;;;;;3.25;2.00;;;;;;;;;;5045132;28;20071;-80
2022/11/17 12:19:42;;;;;;;3.95;2.10;;;;;;;;;;5050079;28;20211;-80
2022/11/17 12:22:13;;;;;;;4.82;1.80;;;;;;;;;;5045203;28;20064;-81
2022/11/17 12:24:40;;;;;;;4.45;1.88;;;;;;;;;;5062425;28;20452;-79
2022/11/17 12:27:42;;;;;;;2.65;1.98;;;;;;;;;;5048545;28;20053;-79
2022/11/17 12:30:28;;;;;;;2.53;1.65;;;;;;;;;;4987455;28;20061;-80
2022/11/17 12:32:55;;;;;;;2.67;1.55;;;;;;;;;;5019566;28;20040;-80
2022/11/17 12:35:25;;;;;;;3.22;1.65;;;;;;;;;;5034594;28;20075;-80
2022/11/17 12:38:26;;;;;;;3.17;1.85;;;;;;;;;;5030048;28;20064;-80
2022/11/17 12:40:53;;;;;;;3.47;1.90;;;;;;;;;;5025727;28;20308;-79
2022/11/17 12:43:21;;;;;;;2.67;1.45;;;;;;;;;;5041029;28;20079;-79
2022/11/17 12:45:57;;;;;;;4.10;1.95;;;;;;;;;;5050040;28;20132;-80
2022/11/17 12:48:23;;;;;;;;;;;;;;;;;;5049326;28;20128;-80
2022/11/17 12:51:04;;;;;;;2.38;1.23;;;;;;;;;;5051124;28;19931;-79
2022/11/17 12:53:46;;;;;;;1.88;1.20;;;;;;;;;;5049292;28;20222;-79
2022/11/17 12:56:19;;;;;;;2.08;1.15;;;;;;;;;;5031175;28;20077;-79
2022/11/17 12:58:45;;;;;;;2.70;1.38;;;;;;;;;;5036452;28;20048;-78
2022/11/17 13:01:15;;;;;;;3.10;1.58;;;;;;;;;;5048392;28;20076;-80
2022/11/17 13:03:44;;;;;;;3.88;2.05;;;;;;;;;;5047791;28;20063;-79
2022/11/17 13:06:13;;;;;;;2.83;1.30;;;;;;;;;;5051842;28;20429;-79
2022/11/17 13:09:01;;;;;;;1.83;1.20;;;;;;;;;;5037812;28;20044;-77
2022/11/17 13:11:28;;;;;;;2.65;1.10;;;;;;;;;;5047552;28;20053;-78
2022/11/17 13:14:11;;;;;;;2.88;0.80;;;;;;;;;;5041940;28;20053;-79
2022/11/17 13:16:47;;;;;;;2.60;1.38;;;;;;;;;;5047181;28;20080;-79
2022/11/17 13:19:25;;;;;;;2.30;1.10;;;;;;;;;;5040209;28;20049;-79
2022/11/17 13:22:02;;;;;;;2.75;1.20;;;;;;;;;;5043920;28;20060;-79
2022/11/17 13:24:33;;;;;;;5.45;1.10;;;;;;;;;;5041778;28;20124;-78
2022/11/17 13:27:01;;;;;;;2.80;1.35;;;;;;;;;;5045524;28;20080;-78
2022/11/17 13:29:27;;;;;;;2.67;1.10;;;;;;;;;;5048359;28;20354;-78
2022/11/17 13:32:12;;;;;;;2.17;1.10;;;;;;;;;;5049812;28;20543;-78
2022/11/17 13:34:47;;;;;;;2.17;0.97;;;;;;;;;;5047277;28;20049;-78
2022/11/17 13:37:21;;;;;;;5.33;1.30;;;;;;;;;;5047838;28;20059;-78
2022/11/17 13:39:58;;;;;;;2.28;1.13;;;;;;;;;;5036872;28;20307;-76
2022/11/17 13:42:25;;;;;;;1.83;1.00;;;;;;;;;;5029147;28;20441;-75
2022/11/17 13:44:53;;;;;;;4.28;1.20;;;;;;;;;;5040807;28;20182;-78
2022/11/17 13:47:20;;;;;;;1.90;1.10;;;;;;;;;;5029233;28;20370;-78
2022/11/17 13:49:46;;;;;;;2.47;1.25;;;;;;;;;;5035269;28;20064;-78
2022/11/17 13:52:27;;;;;;;2.95;1.35;;;;;;;;;;5030506;28;20049;-80
2022/11/17 13:55:05;;;;;;;2.22;1.27;;;;;;;;;;5042378;28;20258;-79
2022/11/17 13:57:31;;;;;;;3.35;1.30;;;;;;;;;;5034397;28;20064;-77
2022/11/17 13:59:58;;;;;;;2.40;1.20;;;;;;;;;;5045057;28;20064;-77
2022/11/17 14:02:27;;;;;;;2.38;1.40;;;;;;;;;;5045055;28;20067;-78
2022/11/17 14:05:09;;;;;;;3.10;1.50;;;;;;;;;;5063135;28;20073;-78
2022/11/17 14:07:37;;;;;;;4.40;1.70;;;;;;;;;;5056040;28;20428;-79
2022/11/17 14:10:18;;;;;;;3.83;1.60;;;;;;;;;;5050872;28;20048;-78
2022/11/17 14:12:46;;;;;;;2.45;1.48;;;;;;;;;;5047598;28;20049;-77
2022/11/17 14:15:26;;;;;;;2.97;1.80;;;;;;;;;;5049283;28;20053;-78
2022/11/17 14:17:53;;;;;;;2.45;1.55;;;;;;;;;;5050673;28;20493;-78
2022/11/17 14:20:23;;;;;;;3.80;2.00;;;;;;;;;;5048226;28;20048;-77
2022/11/17 14:23:03;;;;;;;4.22;1.85;;;;;;;;;;5048219;28;20152;-79
2022/11/17 14:25:29;;;;;;;3.47;2.10;;;;;;;;;;5048217;28;20049;-79
2022/11/17 14:27:56;;;;;;;3.38;1.90;;;;;;;;;;5052929;28;20048;-78
2022/11/17 14:30:22;;;;;;;3.30;2.03;;;;;;;;;;5057974;28;20150;-78
2022/11/17 14:32:49;;;;;;;4.45;2.38;;;;;;;;;;5052605;28;20041;-79
2022/11/17 14:35:15;;;;;;;4.78;2.25;;;;;;;;;;5059434;28;20055;-79
2022/11/17 14:37:46;;;;;;;5.65;2.40;;;;;;;;;;5054161;28;20049;-78
2022/11/17 14:40:14;;;;;;;4.72;2.50;;;;;;;;;;5059119;28;20287;-79
2022/11/17 14:42:41;;;;;;;6.18;3.00;;;;;;;;;;5054439;28;20056;-77
2022/11/17 14:45:08;;;;;;;5.55;2.92;;;;;;;;;;5061102;28;20049;-78
2022/11/17 14:47:34;;;;;;;4.53;2.80;;;;;;;;;;5062463;28;20055;-79
2022/11/17 14:50:01;;;;;;;7.93;2.70;;;;;;;;;;5056870;28;20038;-78
2022/11/17 14:52:27;;;;;;;6.22;2.92;;;;;;;;;;5027978;28;20468;-77
2022/11/17 14:54:53;;;;;;;5.38;3.00;;;;;;;;;;5032487;28;20056;-78
2022/11/17 14:57:20;;;;;;;7.40;3.10;;;;;;;;;;5024828;28;20065;-79
2022/11/17 14:59:46;;;;;;;6.10;2.85;;;;;;;;;;5034029;28;20119;-78
2022/11/17 15:02:12;;;;;;;5.53;3.00;;;;;;;;;;5030342;28;20049;-79
2022/11/17 15:04:40;;;;;;;8.38;3.80;;;;;;;;;;5040496;28;20128;-79
2022/11/17 15:07:16;;;;;;;5.72;3.20;;;;;;;;;;5043310;28;20057;-79
2022/11/17 15:09:42;;;;;;;6.38;3.50;;;;;;;;;;5044631;28;20143;-78
2022/11/17 15:12:09;;;;;;;11.32;4.20;;;;;;;;;;5028351;28;20136;-78
2022/11/17 15:14:35;;;;;;;6.20;3.25;;;;;;;;;;5043963;28;20111;-78
2022/11/17 15:17:02;;;;;;;10.85;5.47;;;;;;;;;;5026662;28;20099;-80
2022/11/17 15:19:28;;;;;;;5.72;2.90;;;;;;;;;;5030625;28;20059;-78